Time;durP1;ratioP1;P1;durP2;ratioP2;P2;SDS_P1;SDS_P2;PMS_P1;PMS_P2;Temp;Humidity;BMP_temperature;BMP_pressure;BME280_temperature;BME280_humidity;BME280_pressure;Samples;Min_cycle;Max_cycle;Signal;HPM_P1;HPM_P2
2021/07/07 00:00:09;;;;;;;207.30;63.00;;;;;;;;;;5059875;28;20468;-75
2021/07/07 00:02:35;;;;;;;193.80;61.57;;;;;;;;;;5053128;28;20430;-76
2021/07/07 00:05:01;;;;;;;205.80;63.40;;;;;;;;;;5053496;28;20500;-76
2021/07/07 00:07:27;;;;;;;217.90;65.23;;;;;;;;;;5058768;28;20531;-75
2021/07/07 00:09:53;;;;;;;202.23;64.50;;;;;;;;;;5063373;28;20929;-75
2021/07/07 00:12:19;;;;;;;208.60;64.13;;;;;;;;;;5052707;28;20398;-76
2021/07/07 00:14:45;;;;;;;204.43;62.10;;;;;;;;;;5058979;28;20754;-75
2021/07/07 00:17:12;;;;;;;226.57;66.43;;;;;;;;;;5068078;28;20854;-75
2021/07/07 00:19:38;;;;;;;212.97;66.80;;;;;;;;;;5053123;28;20886;-76
2021/07/07 00:22:04;;;;;;;206.87;63.90;;;;;;;;;;5055059;28;20423;-75
2021/07/07 00:24:30;;;;;;;163.63;57.70;;;;;;;;;;5065675;28;20455;-75
2021/07/07 00:26:56;;;;;;;187.23;62.47;;;;;;;;;;5053163;28;20973;-76
2021/07/07 00:29:23;;;;;;;170.47;59.87;;;;;;;;;;5060518;28;20417;-75
2021/07/07 00:31:49;;;;;;;167.40;59.60;;;;;;;;;;5073307;28;20463;-75
2021/07/07 00:34:15;;;;;;;180.60;62.57;;;;;;;;;;5053633;28;20430;-75
2021/07/07 00:36:41;;;;;;;177.80;61.37;;;;;;;;;;5052743;28;20453;-75
2021/07/07 00:39:07;;;;;;;226.50;64.93;;;;;;;;;;5051150;28;20906;-75
2021/07/07 00:41:33;;;;;;;214.03;63.70;;;;;;;;;;5052861;28;20817;-75
2021/07/07 00:43:59;;;;;;;208.07;63.30;;;;;;;;;;5055718;28;20384;-75
2021/07/07 00:46:25;;;;;;;170.37;59.00;;;;;;;;;;5052915;28;20415;-75
2021/07/07 00:48:51;;;;;;;179.30;59.73;;;;;;;;;;5065416;28;20819;-75
2021/07/07 00:51:18;;;;;;;198.07;62.90;;;;;;;;;;5057624;28;20464;-75
2021/07/07 00:53:44;;;;;;;194.03;59.83;;;;;;;;;;5052605;28;20406;-75
2021/07/07 00:56:10;;;;;;;190.47;61.47;;;;;;;;;;5053050;28;20441;-75
2021/07/07 00:58:37;;;;;;;188.17;61.33;;;;;;;;;;5052480;28;20413;-75
2021/07/07 01:01:04;;;;;;;187.50;60.00;;;;;;;;;;5052387;28;20395;-75
2021/07/07 01:03:30;;;;;;;168.13;58.67;;;;;;;;;;5056647;28;20388;-75
2021/07/07 01:05:56;;;;;;;189.90;61.10;;;;;;;;;;5057558;28;20453;-75
2021/07/07 01:08:22;;;;;;;174.43;59.80;;;;;;;;;;5054014;28;20439;-75
2021/07/07 01:10:48;;;;;;;177.10;60.40;;;;;;;;;;5052723;28;20410;-75
2021/07/07 01:13:14;;;;;;;177.43;59.97;;;;;;;;;;5055089;28;20445;-75
2021/07/07 01:15:43;;;;;;;182.93;60.17;;;;;;;;;;5072947;28;20471;-75
2021/07/07 01:18:09;;;;;;;184.13;59.47;;;16.90;99.90;;;;;;5060828;28;20394;-76
2021/07/07 01:20:36;;;;;;;195.73;62.27;;;;;;;;;;5057330;28;20413;-76
2021/07/07 01:23:03;;;;;;;192.37;60.67;;;;;;;;;;5055080;28;20919;-75
2021/07/07 01:25:29;;;;;;;203.33;61.23;;;16.90;99.90;;;;;;5058655;28;20498;-75
2021/07/07 01:28:02;;;;;;;202.33;62.70;;;;;;;;;;5056263;28;20461;-75
2021/07/07 01:30:28;;;;;;;206.73;63.57;;;;;;;;;;5058487;28;20422;-75
2021/07/07 01:32:55;;;;;;;205.07;62.23;;;16.90;99.90;;;;;;5056566;28;20396;-75
2021/07/07 01:35:22;;;;;;;61.23;20.20;;;16.90;99.90;;;;;;5063302;28;20413;-75
2021/07/07 01:37:48;;;;;;;26.73;14.90;;;;;;;;;;5068267;28;20414;-75
2021/07/07 01:40:19;;;;;;;60.07;24.73;;;16.70;99.90;;;;;;5063401;28;20917;-76
2021/07/07 01:42:45;;;;;;;75.63;35.07;;;;;;;;;;5065806;28;20389;-76
2021/07/07 01:45:12;;;;;;;64.47;35.33;;;16.80;99.90;;;;;;5056147;28;20790;-75
2021/07/07 01:47:38;;;;;;;48.03;31.70;;;;;;;;;;5066694;28;20454;-75
2021/07/07 01:50:06;;;;;;;89.40;40.40;;;16.80;99.90;;;;;;5056343;28;20397;-75
2021/07/07 01:52:33;;;;;;;70.83;35.90;;;;;;;;;;5075472;28;20450;-75
2021/07/07 01:55:00;;;;;;;70.13;36.33;;;;;;;;;;5069377;28;20408;-75
2021/07/07 01:57:26;;;;;;;72.37;39.50;;;;;;;;;;5071712;28;20433;-75
2021/07/07 01:59:53;;;;;;;63.47;36.47;;;;;;;;;;5055415;28;20775;-75
2021/07/07 02:02:19;;;;;;;73.13;39.90;;;;;;;;;;5055906;28;20452;-75
2021/07/07 02:04:45;;;;;;;88.37;43.07;;;;;;;;;;5055846;28;20571;-75
2021/07/07 02:07:11;;;;;;;92.80;43.40;;;;;;;;;;5055374;28;20466;-76
2021/07/07 02:09:42;;;;;;;88.27;41.97;;;;;;;;;;5065308;28;20888;-75
2021/07/07 02:12:09;;;;;;;81.80;40.90;;;;;;;;;;5066111;28;20762;-75
2021/07/07 02:14:35;;;;;;;110.13;44.70;;;;;;;;;;5055175;28;20375;-76
2021/07/07 02:17:01;;;;;;;92.20;41.47;;;;;;;;;;5072244;28;20416;-75
2021/07/07 02:19:27;;;;;;;78.27;40.57;;;;;;;;;;5075523;28;20855;-75
2021/07/07 02:21:53;;;;;;;93.47;43.47;;;;;;;;;;5066374;28;20419;-75
2021/07/07 02:24:19;;;;;;;103.13;44.33;;;;;;;;;;5071031;28;20392;-75
2021/07/07 02:26:45;;;;;;;106.43;47.20;;;;;;;;;;5060449;28;20475;-76
2021/07/07 02:29:11;;;;;;;106.37;46.23;;;;;;;;;;5054977;28;20450;-75
2021/07/07 02:31:37;;;;;;;138.93;53.30;;;;;;;;;;5054936;28;20757;-76
2021/07/07 02:34:03;;;;;;;149.47;54.97;;;;;;;;;;5055742;28;20776;-75
2021/07/07 02:36:29;;;;;;;165.53;57.83;;;;;;;;;;5069981;28;20405;-75
2021/07/07 02:38:55;;;;;;;158.90;56.97;;;;;;;;;;5071341;28;20403;-75
2021/07/07 02:41:22;;;;;;;156.17;54.90;;;;;;;;;;5053490;28;20410;-75
2021/07/07 02:43:48;;;;;;;165.90;57.27;;;;;;;;;;5066937;28;20417;-75
2021/07/07 02:46:14;;;;;;;176.43;57.80;;;;;;;;;;5058888;28;20417;-75
2021/07/07 02:48:40;;;;;;;156.33;55.80;;;;;;;;;;5075187;28;20531;-75
2021/07/07 02:51:06;;;;;;;186.77;61.00;;;;;;;;;;5068933;28;20818;-75
2021/07/07 02:53:32;;;;;;;158.87;55.27;;;;;;;;;;5054081;28;20844;-75
2021/07/07 02:55:58;;;;;;;198.57;59.33;;;;;;;;;;5054371;28;20965;-75
2021/07/07 02:58:24;;;;;;;162.20;56.13;;;;;;;;;;5055107;28;20391;-75
2021/07/07 03:00:51;;;;;;;187.20;60.30;;;;;;;;;;5054589;28;21412;-75
2021/07/07 03:03:22;;;;;;;228.87;66.17;;;;;;;;;;5054479;28;20422;-75
2021/07/07 03:05:50;;;;;;;252.03;68.60;;;;;;;;;;5053076;28;20453;-76
2021/07/07 03:08:16;;;;;;;228.97;64.00;;;;;;;;;;5053788;28;20450;-76
2021/07/07 03:10:43;;;;;;;235.00;66.47;;;;;;;;;;5054658;28;20889;-75
2021/07/07 03:13:09;;;;;;;231.23;65.10;;;;;;;;;;5069525;28;20504;-76
2021/07/07 03:15:37;;;;;;;257.83;67.90;;;16.00;99.90;;;;;;5061815;28;20428;-75
2021/07/07 03:18:07;;;;;;;223.97;64.03;;;;;;;;;;5072360;28;20908;-75
2021/07/07 03:20:33;;;;;;;270.13;74.33;;;;;;;;;;5055123;28;20418;-75
2021/07/07 03:23:00;;;;;;;236.37;65.70;;;;;;;;;;5053867;28;20889;-75
2021/07/07 03:25:26;;;;;;;283.73;71.40;;;;;;;;;;5053417;28;20730;-75
2021/07/07 03:27:52;;;;;;;243.93;68.27;;;;;;;;;;5053906;28;20457;-75
2021/07/07 03:30:19;;;;;;;247.27;67.23;;;;;;;;;;5054491;28;20415;-75
2021/07/07 03:32:45;;;;;;;246.07;66.70;;;;;;;;;;5053608;28;20434;-75
2021/07/07 03:35:11;;;;;;;260.60;68.67;;;;;;;;;;5059591;28;20402;-76
2021/07/07 03:37:38;;;;;;;260.10;69.10;;;;;;;;;;5060243;28;20426;-75
2021/07/07 03:40:04;;;;;;;268.80;69.33;;;;;;;;;;5054131;28;20465;-76
2021/07/07 03:42:30;;;;;;;259.73;69.60;;;;;;;;;;5053579;28;20410;-76
2021/07/07 03:44:58;;;;;;;277.40;72.10;;;;;;;;;;5073504;28;20421;-75
2021/07/07 03:47:24;;;;;;;259.43;67.20;;;;;;;;;;5073381;28;20518;-75
2021/07/07 03:49:50;;;;;;;283.97;73.37;;;;;;;;;;5063836;28;20865;-75
2021/07/07 03:52:17;;;;;;;282.07;71.67;;;;;;;;;;5053482;28;20406;-75
2021/07/07 03:54:43;;;;;;;329.17;75.57;;;;;;;;;;5065025;28;20491;-75
2021/07/07 03:57:09;;;;;;;307.53;75.37;;;;;;;;;;5073073;28;20394;-75
2021/07/07 03:59:35;;;;;;;295.80;73.13;;;;;;;;;;5061750;28;20436;-75
2021/07/07 04:02:01;;;;;;;288.20;72.20;;;;;;;;;;5052318;28;20755;-75
2021/07/07 04:04:27;;;;;;;322.00;79.17;;;;;;;;;;5073134;28;20433;-75
2021/07/07 04:07:00;;;;;;;321.40;80.63;;;;;;;;;;5071059;28;20922;-75
2021/07/07 04:09:29;;;;;;;326.00;77.77;;;;;;;;;;5070682;28;20409;-75
2021/07/07 04:11:56;;;;;;;354.33;81.00;;;16.00;99.90;;;;;;5053052;28;20418;-78
2021/07/07 04:14:30;;;;;;;331.83;79.80;;;;;;;;;;5052955;28;20781;-80
2021/07/07 04:16:58;;;;;;;325.57;74.97;;;16.00;99.90;;;;;;5051656;28;20402;-77
2021/07/07 04:19:25;;;;;;;343.87;80.73;;;;;;;;;;5054049;28;20533;-86
2021/07/07 04:21:52;;;;;;;320.80;75.80;;;16.00;99.90;;;;;;5064548;28;20414;-76
2021/07/07 04:24:19;;;;;;;344.93;79.77;;;;;;;;;;5053077;28;20888;-76
2021/07/07 04:26:45;;;;;;;338.93;78.50;;;;;;;;;;5064689;28;20885;-76
2021/07/07 04:29:12;;;;;;;332.03;76.47;;;;;;;;;;5054488;28;20458;-77
2021/07/07 04:31:38;;;;;;;343.03;79.53;;;;;;;;;;5062776;28;20961;-76
2021/07/07 04:34:05;;;;;;;385.03;84.47;;;;;;;;;;5052643;28;20943;-75
2021/07/07 04:36:32;;;;;;;322.63;76.17;;;;;;;;;;5053052;28;20395;-75
2021/07/07 04:38:58;;;;;;;329.40;78.20;;;;;;;;;;5052932;28;20415;-75
2021/07/07 04:41:25;;;;;;;349.70;81.07;;;;;;;;;;5053711;28;20493;-75
2021/07/07 04:43:51;;;;;;;358.87;79.53;;;;;;;;;;5072221;28;20497;-75
2021/07/07 04:46:17;;;;;;;351.73;82.27;;;;;;;;;;5064294;28;20410;-75
2021/07/07 04:48:47;;;;;;;339.43;79.93;;;;;;;;;;5057868;28;20442;-75
2021/07/07 04:51:13;;;;;;;318.53;77.10;;;;;;;;;;5076388;28;20393;-76
2021/07/07 04:53:40;;;;;;;341.67;83.73;;;;;;;;;;5056509;28;20776;-75
2021/07/07 04:56:06;;;;;;;264.10;70.00;;;16.30;99.90;;;;;;5056666;28;20394;-75
2021/07/07 04:58:33;;;;;;;256.37;68.53;;;;;;;;;;5063106;28;20425;-75
2021/07/07 05:01:12;;;;;;;241.40;66.63;;;;;;;;;;5056805;28;20834;-82
2021/07/07 05:04:05;;;;;;;246.33;65.70;;;;;;;;;;5056817;28;20518;-82
2021/07/07 05:06:49;;;;;;;235.93;65.10;;;;;;;;;;5056638;28;20472;-80
2021/07/07 05:09:15;;;;;;;258.20;68.63;;;;;;;;;;5056640;28;20457;-76
2021/07/07 05:11:41;;;;;;;286.23;73.30;;;;;;;;;;5055927;28;20866;-75
2021/07/07 05:14:07;;;;;;;259.07;70.60;;;;;;;;;;5074331;28;20414;-75
2021/07/07 05:16:34;;;;;;;258.67;68.90;;;;;;;;;;5070075;28;20480;-75
2021/07/07 05:19:00;;;;;;;256.53;69.73;;;;;;;;;;5069720;28;20467;-75
2021/07/07 05:21:26;;;;;;;286.87;77.20;;;;;;;;;;5056086;28;20420;-75
2021/07/07 05:23:52;;;;;;;251.50;70.57;;;;;;;;;;5056445;28;20727;-75
2021/07/07 05:26:18;;;;;;;247.83;68.37;;;;;;;;;;5056466;28;20854;-76
2021/07/07 05:28:44;;;;;;;291.57;75.77;;;;;;;;;;5070077;28;20789;-76
2021/07/07 05:31:10;;;;;;;249.73;69.73;;;;;;;;;;5076330;28;20783;-75
2021/07/07 05:33:37;;;;;;;241.57;67.10;;;;;;;;;;5056468;28;20439;-75
2021/07/07 05:36:04;;;;;;;297.13;73.77;;;;;;;;;;5056079;28;20465;-76
2021/07/07 05:38:30;;;;;;;248.77;70.33;;;;;;;;;;5056411;28;20411;-77
2021/07/07 05:40:56;;;;;;;241.40;66.97;;;;;;;;;;5056724;28;20490;-75
2021/07/07 05:43:23;;;;;;;263.47;71.43;;;;;;;;;;5060684;28;20794;-75
2021/07/07 05:45:49;;;;;;;251.83;71.20;;;;;;;;;;5055558;28;20440;-75
2021/07/07 05:48:15;;;;;;;256.13;70.53;;;;;;;;;;5055003;28;20454;-75
2021/07/07 05:50:41;;;;;;;330.17;83.33;;;;;;;;;;5059568;28;20395;-75
2021/07/07 05:53:07;;;;;;;339.47;84.70;;;;;;;;;;5060607;28;20782;-75
2021/07/07 05:55:33;;;;;;;259.13;70.77;;;;;;;;;;5072911;28;20901;-75
2021/07/07 05:57:59;;;;;;;264.97;73.10;;;;;;;;;;5074866;28;20406;-75
2021/07/07 06:00:26;;;;;;;265.47;72.77;;;18.00;99.90;;;;;;5074855;28;20390;-75
2021/07/07 06:02:52;;;;;;;302.77;80.03;;;;;;;;;;5064163;28;20944;-75
2021/07/07 06:05:19;;;;;;;292.13;78.87;;;;;;;;;;5064577;28;20569;-75
2021/07/07 06:07:45;;;;;;;261.27;73.10;;;;;;;;;;5054768;28;20456;-75
2021/07/07 06:10:13;;;;;;;271.73;74.83;;;;;;;;;;5070468;28;20697;-75
2021/07/07 06:12:39;;;;;;;273.87;75.83;;;;;;;;;;5053676;28;20399;-75
2021/07/07 06:15:06;;;;;;;281.53;77.60;;;;;;;;;;5054396;28;20416;-76
2021/07/07 06:17:33;;;;;;;299.03;80.20;;;;;;;;;;5059615;28;20473;-76
2021/07/07 06:19:59;;;;;;;300.67;78.47;;;;;;;;;;5070814;28;20939;-75
2021/07/07 06:22:26;;;;;;;295.60;78.17;;;;;;;;;;5074535;28;20445;-75
2021/07/07 06:24:52;;;;;;;262.80;74.97;;;;;;;;;;5057024;28;20425;-76
2021/07/07 06:27:19;;;;;;;271.30;75.00;;;;;;;;;;5053969;28;20512;-75
2021/07/07 06:29:45;;;;;;;279.40;75.20;;;;;;;;;;5053978;28;20413;-76
2021/07/07 06:32:14;;;;;;;303.53;81.40;;;;;;;;;;5054000;28;20400;-75
2021/07/07 06:34:40;;;;;;;291.40;77.50;;;;;;;;;;5055397;28;20393;-76
2021/07/07 06:37:06;;;;;;;292.90;76.80;;;;;;;;;;5057120;28;20776;-75
2021/07/07 06:39:35;;;;;;;277.47;76.63;;;;;;;;;;5060163;28;20492;-76
2021/07/07 06:42:02;;;;;;;304.90;80.37;;;;;;;;;;5066244;28;20868;-75
2021/07/07 06:44:28;;;;;;;320.97;83.23;;;;;;;;;;5068196;28;20408;-75
2021/07/07 06:46:54;;;;;;;277.50;76.10;;;;;;;;;;5062507;28;20441;-75
2021/07/07 06:49:21;;;;;;;300.23;80.63;;;;;;;;;;5071841;28;20443;-80
2021/07/07 06:51:49;;;;;;;271.40;73.23;;;;;;;;;;5060897;28;20883;-82
2021/07/07 06:54:15;;;;;;;292.57;79.83;;;;;;;;;;5058075;28;20514;-81
2021/07/07 06:56:41;;;;;;;295.93;78.53;;;;;;;;;;5055578;28;20476;-81
2021/07/07 06:59:07;;;;;;;289.20;79.13;;;;;;;;;;5073362;28;20428;-82
2021/07/07 07:01:33;;;;;;;299.10;77.60;;;;;;;;;;5057037;28;20583;-82
2021/07/07 07:03:59;;;;;;;414.73;110.27;;;;;;;;;;5077482;28;20903;-75
2021/07/07 07:06:28;;;;;;;335.63;85.83;;;;;;;;;;5057198;28;20913;-75
2021/07/07 07:08:54;;;;;;;312.27;81.73;;;;;;;;;;5056490;28;20507;-75
2021/07/07 07:11:20;;;;;;;314.47;82.87;;;;;;;;;;5061002;28;20451;-75
2021/07/07 07:13:48;;;;;;;320.83;84.10;;;;;;;;;;5072919;28;20431;-74
2021/07/07 07:16:14;;;;;;;318.63;83.50;;;;;;;;;;5071345;28;20419;-74
2021/07/07 07:18:41;;;;;;;300.37;79.73;;;;;;;;;;5073054;28;20894;-74
2021/07/07 07:21:08;;;;;;;335.13;84.73;;;;;;;;;;5073120;28;20402;-75
2021/07/07 07:23:34;;;;;;;256.97;74.30;;;;;;;;;;5064177;28;20387;-76
2021/07/07 07:26:04;;;;;;;271.37;77.30;;;;;;;;;;5063358;28;20496;-75
2021/07/07 07:28:30;;;;;;;240.93;72.37;;;;;;;;;;5057876;28;20505;-76
2021/07/07 07:31:00;;;;;;;241.67;71.80;;;;;;;;;;5059898;28;20391;-76
2021/07/07 07:33:26;;;;;;;292.53;81.87;;;;;;;;;;5063825;28;20424;-75
2021/07/07 07:35:52;;;;;;;239.37;69.30;;;;;;;;;;5059986;28;20404;-74
2021/07/07 07:38:27;;;;;;;247.43;74.00;;;;;;;;;;5072594;28;20376;-74
2021/07/07 07:40:53;;;;;;;250.50;74.20;;;;;;;;;;5072563;28;20377;-74
2021/07/07 07:43:22;;;;;;;311.73;83.23;;;;;;;;;;5072415;28;20400;-74
2021/07/07 07:45:49;;;;;;;293.63;79.70;;;;;;;;;;5061981;28;20426;-74
2021/07/07 07:48:15;;;;;;;260.80;75.67;;;;;;;;;;5060113;28;20829;-74
2021/07/07 07:50:41;;;;;;;258.63;74.23;;;;;;;;;;5061526;28;20404;-75
2021/07/07 07:53:07;;;;;;;265.57;76.37;;;;;;;;;;5072455;28;20363;-75
2021/07/07 07:55:33;;;;;;;272.43;79.40;;;;;;;;;;5070068;28;20404;-75
2021/07/07 07:57:59;;;;;;;286.60;80.73;;;;;;;;;;5049782;28;20443;-76
2021/07/07 08:00:26;;;;;;;272.13;79.50;;;;;;;;;;5062845;28;20920;-76
2021/07/07 08:02:54;;;;;;;282.23;80.57;;;;;;;;;;5064397;28;20415;-75
2021/07/07 08:05:20;;;;;;;319.13;86.03;;;;;;;;;;5064619;28;20420;-75
2021/07/07 08:07:47;;;;;;;273.40;79.93;;;;;;;;;;5052120;28;20476;-76
2021/07/07 08:10:14;;;;;;;287.30;83.60;;;;;;;;;;5051584;28;20422;-76
2021/07/07 08:12:40;;;;;;;287.73;84.00;;;;;;;;;;5051772;28;20723;-75
2021/07/07 08:15:07;;;;;;;307.30;88.93;;;;;;;;;;5057529;28;20403;-75
2021/07/07 08:17:33;;;;;;;286.27;81.27;;;;;;;;;;5061979;28;20396;-75
2021/07/07 08:19:59;;;;;;;305.67;86.07;;;;;;;;;;5072285;28;20456;-75
2021/07/07 08:22:25;;;;;;;283.20;80.17;;;;;;;;;;5058276;28;20404;-81
2021/07/07 08:24:52;;;;;;;81.27;38.03;;;;;;;;;;5058968;28;20396;-81
2021/07/07 08:27:18;;;;;;;113.93;50.90;;;;;;;;;;5052342;28;20463;-80
2021/07/07 08:29:44;;;;;;;104.47;46.73;;;;;;;;;;5052177;28;20395;-80
2021/07/07 08:32:10;;;;;;;108.03;48.70;;;;;;;;;;5055552;28;20905;-76
2021/07/07 08:34:37;;;;;;;116.80;50.50;;;;;;;;;;5069670;28;20485;-79
2021/07/07 08:37:03;;;;;;;129.73;56.80;;;21.00;99.90;;;;;;5071857;28;20387;-75
2021/07/07 08:39:29;;;;;;;104.47;50.37;;;;;;;;;;5071788;28;20481;-75
2021/07/07 08:41:56;;;;;;;100.73;50.83;;;;;;;;;;5071827;28;20373;-75
2021/07/07 08:44:24;;;;;;;132.13;56.70;;;;;;;;;;5068740;28;20423;-75
2021/07/07 08:46:50;;;;;;;138.83;60.40;;;;;;;;;;5067018;28;20417;-75
2021/07/07 08:49:16;;;;;;;170.93;71.33;;;;;;;;;;5072140;28;20452;-75
2021/07/07 08:51:42;;;;;;;183.53;73.93;;;;;;;;;;5072108;28;20369;-75
2021/07/07 08:54:11;;;;;;;172.17;67.23;;;;;;;;;;5071463;28;20925;-76
2021/07/07 08:56:41;;;;;;;202.33;73.70;;;;;;;;;;5054492;28;20412;-78
2021/07/07 08:59:11;;;;;;;186.17;73.07;;;;;;;;;;5052430;28;20453;-74
2021/07/07 09:01:58;;;;;;;183.47;72.57;;;21.90;99.90;;;;;;5064136;28;20403;-74
2021/07/07 09:04:29;;;;;;;202.83;76.97;;;;;;;;;;5053378;28;20522;-74
2021/07/07 09:07:03;;;;;;;215.90;81.83;;;;;;;;;;5057162;28;20415;-74
2021/07/07 09:09:38;;;;;;;204.20;77.93;;;;;;;;;;5051728;28;20442;-74
2021/07/07 09:12:14;;;;;;;207.83;80.00;;;;;;;;;;5049721;28;20779;-74
2021/07/07 09:14:42;;;;;;;203.53;75.80;;;;;;;;;;5050313;28;20440;-75
2021/07/07 09:17:17;;;;;;;241.03;86.10;;;22.40;99.90;;;;;;5054290;28;20419;-75
2021/07/07 09:19:44;;;;;;;214.90;79.00;;;22.50;99.90;;;;;;5052388;28;20437;-76
2021/07/07 09:22:11;;;;;;;248.93;86.10;;;22.50;99.90;;;;;;5066910;28;20424;-73
2021/07/07 09:24:39;;;;;;;204.83;78.53;;;;;;;;;;5062563;28;20479;-74
2021/07/07 09:27:13;;;;;;;214.27;82.93;;;22.90;99.90;;;;;;5055281;28;20426;-75
2021/07/07 09:29:40;;;;;;;222.57;85.00;;;;;;;;;;5070902;28;20491;-77
2021/07/07 09:32:20;;;;;;;209.07;81.87;;;;;;;;;;5070081;28;20411;-78
2021/07/07 09:34:51;;;;;;;218.77;84.00;;;;;;;;;;5074958;28;20406;-78
2021/07/07 09:37:37;;;;;;;214.13;82.03;;;23.30;99.90;;;;;;5076584;28;20866;-78
2021/07/07 09:40:09;;;;;;;278.83;93.07;;;23.40;99.90;;;;;;5074573;28;20550;-77
2021/07/07 09:42:37;;;;;;;217.20;84.23;;;23.60;99.90;;;;;;5064398;28;20438;-77
2021/07/07 09:45:07;;;;;;;220.13;83.30;;;;;;;;;;5056290;28;20384;-77
2021/07/07 09:47:38;;;;;;;202.93;82.03;;;;;;;;;;5055979;28;20446;-82
2021/07/07 09:50:05;;;;;;;218.20;85.30;;;;;;;;;;5055402;28;20763;-75
2021/07/07 09:52:49;;;;;;;208.63;83.70;;;;;;;;;;5056413;28;20447;-80
2021/07/07 09:55:15;;;;;;;212.00;85.27;;;;;;;;;;5055817;28;20393;-79
2021/07/07 09:57:55;;;;;;;250.70;86.10;;;;;;;;;;5055810;28;20414;-78
2021/07/07 10:00:23;;;;;;;231.47;83.63;;;23.50;99.90;;;;;;5059168;28;20530;-80
2021/07/07 10:02:55;;;;;;;231.83;83.23;;;;;;;;;;5055969;28;20415;-81
2021/07/07 10:05:22;;;;;;;228.00;88.47;;;;;;;;;;5069108;28;20584;-82
2021/07/07 10:07:49;;;;;;;225.37;85.63;;;;;;;;;;5062261;28;20474;-81
2021/07/07 10:10:42;;;;;;;229.33;84.80;;;;;;;;;;5072752;28;20507;-81
2021/07/07 10:13:19;;;;;;;222.60;82.50;;;;;;;;;;5074108;28;20414;-80
2021/07/07 10:16:13;;;;;;;229.30;87.83;;;24.30;99.90;;;;;;5074313;28;20427;-81
2021/07/07 10:18:49;;;;;;;223.97;83.30;;;;;;;;;;5074170;28;20477;-81
2021/07/07 10:21:16;;;;;;;263.53;91.33;;;24.60;99.90;;;;;;5073733;28;20411;-81
2021/07/07 10:23:42;;;;;;;250.23;90.83;;;24.70;99.90;;;;;;5072153;28;20437;-80
2021/07/07 10:26:09;;;;;;;254.63;91.30;;;;;;;;;;5070875;28;20484;-81
2021/07/07 10:28:36;;;;;;;252.60;94.23;;;;;;;;;;5060775;28;21022;-81
2021/07/07 10:31:02;;;;;;;222.73;87.57;;;24.80;99.90;;;;;;5055999;28;20921;-81
2021/07/07 10:33:38;;;;;;;229.43;89.80;;;;;;;;;;5066909;28;20419;-82
2021/07/07 10:36:14;;;;;;;266.23;97.87;;;;;;;;;;5065760;28;20436;-81
2021/07/07 10:38:40;;;;;;;278.87;97.77;;;;;;;;;;5070969;28;20774;-82
2021/07/07 10:41:06;;;;;;;268.27;95.40;;;;;;;;;;5073364;28;20421;-84
2021/07/07 10:43:45;;;;;;;266.70;98.80;;;;;;;;;;5062610;28;20453;-84
2021/07/07 10:46:12;;;;;;;266.57;97.90;;;;;;;;;;5058845;28;20424;-84
2021/07/07 10:48:38;;;;;;;318.33;109.77;;;;;;;;;;5066314;28;20459;-84
2021/07/07 10:51:10;;;;;;;284.90;103.23;;;;;;;;;;5052427;28;20427;-84
2021/07/07 10:53:36;;;;;;;335.27;111.10;;;25.80;99.90;;;;;;5073410;28;20408;-84
2021/07/07 10:56:04;;;;;;;289.07;99.60;;;;;;;;;;5074035;28;20398;-84
2021/07/07 10:58:34;;;;;;;263.70;98.00;;;;;;;;;;5071927;28;20427;-84
2021/07/07 11:01:01;;;;;;;269.27;98.37;;;;;;;;;;5060703;28;20446;-85
2021/07/07 11:03:33;;;;;;;283.07;101.17;;;;;;;;;;5089712;28;20889;-85
2021/07/07 11:06:22;;;;;;;293.27;106.17;;;25.80;99.90;;;;;;5059114;28;20451;-84
2021/07/07 11:08:49;;;;;;;330.10;112.23;;;;;;;;;;5028294;28;20472;-77
2021/07/07 11:11:24;;;;;;;317.37;107.63;;;;;;;;;;5017988;28;20523;-75
2021/07/07 11:13:50;;;;;;;273.70;98.83;;;;;;;;;;5031084;28;20408;-75
2021/07/07 11:16:21;;;;;;;309.00;106.20;;;26.00;99.90;;;;;;5031029;28;20429;-75
2021/07/07 11:18:48;;;;;;;235.73;99.77;;;;;;;;;;5030452;28;20429;-75
2021/07/07 11:21:14;;;;;;;213.00;89.90;;;;;;;;;;5027197;28;20433;-75
2021/07/07 11:23:41;;;;;;;168.57;81.00;;;;;;;;;;5031023;28;20493;-75
2021/07/07 11:26:08;;;;;;;115.93;62.30;;;;;;;;;;5018045;28;20816;-75
2021/07/07 11:28:34;;;;;;;129.47;67.40;;;;;;;;;;5030891;28;20510;-75
2021/07/07 11:31:00;;;;;;;150.40;74.13;;;;;;;;;;5030599;28;20405;-75
2021/07/07 11:33:26;;;;;;;133.97;69.97;;;;;;;;;;5012525;28;20455;-75
2021/07/07 11:35:53;;;;;;;159.27;77.33;;;;;;;;;;5019738;28;20421;-75
2021/07/07 11:38:23;;;;;;;196.97;80.37;;;;;;;;;;5030409;28;20879;-74
2021/07/07 11:40:53;;;;;;;145.70;69.80;;;;;;;;;;5026376;28;20964;-75
2021/07/07 11:43:26;;;;;;;137.70;66.73;;;;;;;;;;5013751;28;20430;-75
2021/07/07 11:45:58;;;;;;;164.90;74.73;;;;;;;;;;5052098;28;20770;-75
2021/07/07 11:50:59;;;;;;;151.57;68.93;;;;;;;;;;5063475;28;20423;-75
2021/07/07 11:53:35;;;;;;;127.57;66.27;;;25.90;99.90;;;;;;5060982;28;20414;-75
2021/07/07 11:56:25;;;;;;;145.70;70.00;;;26.00;99.90;;;;;;5052256;28;20756;-75
2021/07/07 11:58:53;;;;;;;219.13;86.33;;;26.00;99.90;;;;;;5057433;28;21063;-75
2021/07/07 12:01:46;;;;;;;194.83;85.57;;;26.10;99.90;;;;;;5063683;28;20435;-74
2021/07/07 12:04:15;;;;;;;228.63;91.93;;;;;;;;;;5055195;28;20443;-74
2021/07/07 12:06:41;;;;;;;155.90;77.87;;;;;;;;;;5066258;28;20444;-74
2021/07/07 12:09:18;;;;;;;199.93;88.40;;;26.30;99.90;;;;;;5061190;28;20473;-74
2021/07/07 12:12:03;;;;;;;189.00;88.60;;;26.40;99.90;;;;;;5063494;28;20428;-78
2021/07/07 12:14:34;;;;;;;168.87;81.33;;;26.40;99.90;;;;;;5052486;28;20407;-78
2021/07/07 12:17:00;;;;;;;167.07;80.63;;;;;;;;;;5066354;28;20763;-78
2021/07/07 12:19:27;;;;;;;191.83;86.23;;;26.60;99.90;;;;;;5058847;28;20417;-78
2021/07/07 12:22:01;;;;;;;179.50;80.83;;;26.60;99.90;;;;;;5070733;28;20415;-78
2021/07/07 12:24:39;;;;;;;195.27;84.03;;;26.70;99.90;;;;;;5059305;28;20515;-77
2021/07/07 12:27:06;;;;;;;375.57;122.33;;;;;;;;;;5056837;28;21008;-74
2021/07/07 12:29:33;;;;;;;208.70;86.37;;;;;;;;;;5054438;28;20475;-74
2021/07/07 12:32:27;;;;;;;192.80;89.23;;;26.70;99.90;;;;;;5056278;28;20895;-74
2021/07/07 12:34:59;;;;;;;233.87;96.60;;;26.90;99.90;;;;;;5067663;28;20473;-74
2021/07/07 12:37:26;;;;;;;227.80;95.90;;;27.00;99.90;;;;;;5070345;28;20420;-74
2021/07/07 12:39:53;;;;;;;214.93;92.83;;;;;;;;;;5066225;28;20900;-74
2021/07/07 12:42:35;;;;;;;277.53;107.47;;;27.10;99.90;;;;;;5071887;28;20839;-77
2021/07/07 12:45:10;;;;;;;256.33;104.23;;;27.10;99.90;;;;;;5064337;28;20429;-77
2021/07/07 12:47:36;;;;;;;248.90;101.67;;;;;;;;;;5051866;28;20503;-77
2021/07/07 12:50:13;;;;;;;268.63;107.43;;;;;;;;;;5052264;28;20390;-76
2021/07/07 12:52:43;;;;;;;253.43;103.63;;;27.00;99.90;;;;;;5051957;28;20419;-78
2021/07/07 12:55:11;;;;;;;331.30;114.90;;;;;;;;;;5060534;28;20427;-74
2021/07/07 12:58:03;;;;;;;219.63;96.07;;;27.00;99.90;;;;;;5065421;28;20748;-78
2021/07/07 13:00:36;;;;;;;197.60;91.10;;;;;;;;;;5066181;28;20556;-73
2021/07/07 13:03:09;;;;;;;188.37;86.57;;;;;;;;;;5059262;28;20454;-72
2021/07/07 13:05:40;;;;;;;256.13;100.97;;;27.20;99.90;;;;;;5051059;28;20540;-78
2021/07/07 13:08:08;;;;;;;223.17;99.17;;;;;;;;;;5073533;28;20535;-73
2021/07/07 13:10:36;;;;;;;240.53;101.77;;;27.40;99.90;;;;;;5066640;28;20417;-75
2021/07/07 13:13:18;;;;;;;220.63;97.53;;;;;;;;;;5055268;28;20442;-74
2021/07/07 13:16:12;;;;;;;224.60;95.17;;;27.70;99.90;;;;;;5055830;28;20415;-75
2021/07/07 13:18:57;;;;;;;227.10;101.20;;;;;;;;;;5055981;28;20407;-75
2021/07/07 13:21:30;;;;;;;250.27;103.43;;;;;;;;;;5074155;28;20946;-75
2021/07/07 13:23:57;;;;;;;272.10;110.57;;;28.40;99.90;;;;;;5075926;28;20417;-75
2021/07/07 13:26:28;;;;;;;231.23;105.23;;;28.50;99.90;;;;;;5068294;28;20522;-76
2021/07/07 13:29:13;;;;;;;213.93;103.17;;;;;;;;;;5073121;28;20527;-75
2021/07/07 13:31:39;;;;;;;231.07;102.57;;;;;;;;;;5060967;28;20458;-76
2021/07/07 13:34:05;;;;;;;228.30;106.00;;;;;;;;;;5070214;28;20430;-77
2021/07/07 13:36:34;;;;;;;251.73;109.43;;;;;;;;;;5075836;28;20392;-77
2021/07/07 13:39:10;;;;;;;235.77;106.57;;;29.10;99.90;;;;;;5069093;28;20476;-77
2021/07/07 13:41:38;;;;;;;257.93;106.77;;;29.20;99.90;;;;;;5076290;28;20412;-74
2021/07/07 13:44:04;;;;;;;219.57;101.00;;;;;;;;;;5075676;28;20432;-74
2021/07/07 13:46:31;;;;;;;255.70;108.53;;;;;;;;;;5068356;28;20428;-74
2021/07/07 13:48:57;;;;;;;229.30;100.73;;;;;;;;;;5055752;28;20449;-75
2021/07/07 13:51:23;;;;;;;223.97;101.63;;;;;;;;;;5055581;28;20386;-74
2021/07/07 13:53:49;;;;;;;244.00;102.70;;;;;;;;;;5055696;28;20435;-74